createdAt,value
2022-10-08T00:00:53.935Z,9.30
2022-10-08T00:13:14.313Z,9.30
2022-10-08T00:19:16.417Z,9.20
2022-10-08T00:25:18.869Z,9.20
2022-10-08T00:31:29.254Z,9.10
2022-10-08T00:44:09.205Z,8.80
2022-10-08T00:50:43.838Z,8.40
2022-10-08T00:56:51.197Z,8.10
2022-10-08T01:02:54.198Z,7.90
2022-10-08T01:09:19.047Z,7.90
2022-10-08T01:15:33.582Z,7.80
2022-10-08T01:22:29.680Z,7.80
2022-10-08T01:28:56.424Z,7.90
2022-10-08T01:35:04.881Z,7.90
2022-10-08T01:41:10.350Z,7.90
2022-10-08T01:47:23.361Z,7.80
2022-10-08T01:53:33.435Z,8.00
2022-10-08T01:59:43.474Z,7.90
2022-10-08T02:05:50.613Z,8.00
2022-10-08T02:11:53.509Z,8.00
2022-10-08T02:18:22.842Z,8.20
2022-10-08T02:24:38.060Z,8.10
2022-10-08T02:31:09.243Z,8.10
2022-10-08T02:37:23.361Z,8.30
2022-10-08T02:43:30.717Z,8.10
2022-10-08T02:49:39.109Z,8.10
2022-10-08T02:56:08.523Z,8.20
2022-10-08T03:02:17.740Z,8.00
2022-10-08T03:08:21.417Z,8.00
2022-10-08T03:14:25.104Z,7.90
2022-10-08T03:20:27.602Z,8.20
2022-10-08T03:26:30.234Z,8.40
2022-10-08T03:32:32.102Z,8.30
2022-10-08T03:38:34.825Z,8.60
2022-10-08T03:44:36.770Z,9.00
2022-10-08T03:50:38.828Z,9.40
2022-10-08T03:56:40.728Z,8.80
2022-10-08T04:02:47.075Z,8.60
2022-10-08T04:08:49.520Z,8.60
2022-10-08T04:14:51.457Z,8.80
2022-10-08T04:21:02.143Z,9.00
2022-10-08T04:27:04.163Z,9.30
2022-10-08T04:33:06.046Z,9.40
2022-10-08T04:39:08.097Z,9.50
2022-10-08T04:45:10.512Z,9.40
2022-10-08T04:51:12.429Z,9.30
2022-10-08T04:57:15.501Z,9.20
2022-10-08T05:03:17.527Z,8.80
2022-10-08T05:09:19.464Z,9.10
2022-10-08T05:15:21.358Z,9.40
2022-10-08T05:21:27.454Z,9.60
2022-10-08T05:33:39.619Z,9.20
2022-10-08T05:39:41.516Z,8.70
2022-10-08T05:45:51.217Z,8.80
2022-10-08T05:51:53.171Z,9.20
2022-10-08T05:57:55.060Z,9.60
2022-10-08T06:04:04.281Z,10.00
2022-10-08T06:10:10.009Z,9.80
2022-10-08T06:22:28.601Z,9.50
2022-10-08T06:28:31.060Z,9.60
2022-10-08T06:34:32.948Z,9.80
2022-10-08T06:40:40.128Z,10.20
2022-10-08T06:46:43.010Z,10.50
2022-10-08T06:52:46.069Z,10.60
2022-10-08T06:58:48.464Z,10.80
2022-10-08T07:04:50.339Z,10.90
2022-10-08T07:10:52.864Z,10.90
2022-10-08T07:16:54.832Z,11.00
2022-10-08T07:22:56.753Z,11.10
2022-10-08T07:29:06.319Z,11.20
2022-10-08T07:35:09.832Z,11.30
2022-10-08T07:41:13.102Z,11.20
2022-10-08T07:47:15.091Z,11.30
2022-10-08T07:53:17.068Z,11.50
2022-10-08T07:59:18.960Z,11.60
2022-10-08T08:05:20.906Z,11.90
2022-10-08T08:11:24.894Z,12.30
2022-10-08T08:17:26.823Z,12.60
2022-10-08T08:23:34.282Z,12.60
2022-10-08T08:29:36.181Z,12.70
2022-10-08T08:35:38.090Z,12.70
2022-10-08T08:42:00.237Z,12.50
2022-10-08T08:48:21.808Z,12.40
2022-10-08T08:54:24.284Z,12.30
2022-10-08T09:00:39.172Z,12.60
2022-10-08T09:06:41.727Z,12.80
2022-10-08T09:12:44.875Z,12.70
2022-10-08T09:18:50.331Z,12.70
2022-10-08T09:25:11.521Z,12.70
2022-10-08T09:31:40.459Z,12.70
2022-10-08T09:37:47.415Z,12.80
2022-10-08T09:44:08.192Z,12.90
2022-10-08T09:50:20.266Z,13.00
2022-10-08T09:56:29.459Z,13.00
2022-10-08T10:02:38.399Z,13.00
2022-10-08T10:08:53.678Z,12.80
2022-10-08T10:15:09.255Z,13.00
2022-10-08T10:21:19.051Z,13.30
2022-10-08T10:27:41.035Z,13.90
2022-10-08T10:34:00.287Z,14.20
2022-10-08T10:40:31.145Z,14.30
2022-10-08T10:46:44.895Z,14.70
2022-10-08T10:53:19.147Z,14.80
2022-10-08T10:59:46.547Z,15.10
2022-10-08T11:06:04.293Z,16.80
2022-10-08T11:12:39.992Z,17.50
2022-10-08T11:19:04.308Z,17.00
2022-10-08T11:26:09.931Z,16.60
2022-10-08T11:32:10.318Z,17.70
2022-10-08T11:38:40.373Z,17.70
2022-10-08T11:44:42.411Z,17.80
2022-10-08T11:50:44.346Z,18.50
2022-10-08T11:56:51.694Z,18.60
2022-10-08T12:02:55.723Z,16.80
2022-10-08T12:09:04.821Z,16.60
2022-10-08T12:15:27.742Z,17.50
2022-10-08T12:21:29.522Z,18.50
2022-10-08T12:27:35.218Z,17.00
2022-10-08T12:33:37.140Z,16.20
2022-10-08T12:39:44.940Z,15.80
2022-10-08T12:46:28.016Z,15.50
2022-10-08T12:52:36.437Z,15.40
2022-10-08T12:58:39.177Z,15.30
2022-10-08T13:04:46.416Z,16.50
2022-10-08T13:10:48.265Z,18.00
2022-10-08T13:16:50.158Z,18.90
2022-10-08T13:22:52.608Z,19.40
2022-10-08T13:29:26.467Z,20.10
2022-10-08T13:35:29.211Z,18.30
2022-10-08T13:41:31.149Z,19.40
2022-10-08T13:47:33.133Z,20.20
2022-10-08T13:53:35.581Z,19.90
2022-10-08T13:59:38.055Z,20.60
2022-10-08T14:05:46.981Z,19.70
2022-10-08T14:11:55.503Z,18.70
2022-10-08T14:17:57.408Z,17.30
2022-10-08T14:23:59.314Z,16.50
2022-10-08T14:30:01.259Z,15.90
2022-10-08T14:36:18.521Z,15.40
2022-10-08T14:42:20.423Z,15.20
2022-10-08T14:48:22.341Z,15.40
2022-10-08T14:54:25.827Z,16.00
2022-10-08T15:00:31.387Z,17.50
2022-10-08T15:06:34.448Z,18.30
2022-10-08T15:12:36.409Z,18.40
2022-10-08T15:18:38.897Z,17.70
2022-10-08T15:24:41.356Z,16.50
2022-10-08T15:30:44.313Z,15.80
2022-10-08T15:36:46.484Z,16.00
2022-10-08T15:42:51.603Z,16.80
2022-10-08T15:48:57.005Z,17.50
2022-10-08T15:55:08.372Z,17.60
2022-10-08T16:01:14.038Z,17.30
2022-10-08T16:07:16.886Z,17.00
2022-10-08T16:13:18.783Z,16.10
2022-10-08T16:19:24.615Z,15.20
2022-10-08T16:25:26.671Z,14.60
2022-10-08T16:31:32.352Z,14.20
2022-10-08T16:37:34.241Z,14.00
2022-10-08T16:43:36.164Z,13.90
2022-10-08T16:49:38.134Z,13.60
2022-10-08T16:55:41.603Z,13.30
2022-10-08T17:01:46.786Z,13.10
2022-10-08T17:07:48.687Z,12.90
2022-10-08T17:13:54.241Z,12.70
2022-10-08T17:19:56.130Z,12.50
2022-10-08T17:25:59.144Z,12.30
2022-10-08T17:32:03.017Z,12.20
2022-10-08T17:38:04.921Z,11.90
2022-10-08T17:44:09.715Z,11.80
2022-10-08T17:50:11.662Z,11.60
2022-10-08T17:56:14.899Z,11.30
2022-10-08T18:02:16.873Z,10.90
2022-10-08T18:08:19.048Z,10.60
2022-10-08T18:14:22.049Z,10.50
2022-10-08T18:20:23.939Z,10.30
2022-10-08T18:26:32.221Z,10.20
2022-10-08T18:32:34.107Z,10.10
2022-10-08T18:38:36.100Z,10.10
2022-10-08T18:44:37.999Z,10.00
2022-10-08T18:50:39.880Z,9.70
2022-10-08T18:56:42.115Z,9.60
2022-10-08T19:02:44.075Z,9.50
2022-10-08T19:08:46.971Z,9.40
2022-10-08T19:14:49.538Z,9.30
2022-10-08T19:20:51.447Z,9.30
2022-10-08T19:26:54.785Z,9.30
2022-10-08T19:32:56.739Z,9.40
2022-10-08T19:39:02.789Z,9.50
2022-10-08T19:45:05.284Z,9.50
2022-10-08T19:51:12.072Z,9.20
2022-10-08T19:57:14.129Z,9.10
2022-10-08T20:03:16.183Z,9.00
2022-10-08T20:09:18.176Z,8.90
2022-10-08T20:15:20.739Z,8.70
2022-10-08T20:21:23.557Z,8.60
2022-10-08T20:27:25.463Z,8.70
2022-10-08T20:33:27.392Z,8.90
2022-10-08T20:39:29.740Z,8.70
2022-10-08T20:45:31.642Z,8.50
2022-10-08T20:51:34.405Z,8.70
2022-10-08T20:57:36.326Z,8.80
2022-10-08T21:03:43.572Z,8.60
2022-10-08T21:09:45.494Z,8.30
2022-10-08T21:15:48.020Z,8.10
2022-10-08T21:21:50.252Z,8.10
2022-10-08T21:27:52.102Z,8.10
2022-10-08T21:33:54.832Z,8.10
2022-10-08T21:39:56.964Z,8.10
2022-10-08T21:46:01.077Z,7.90
2022-10-08T21:52:03.119Z,7.80
2022-10-08T21:58:04.979Z,7.90
2022-10-08T22:04:09.343Z,7.90
2022-10-08T22:10:11.217Z,7.90
2022-10-08T22:16:16.121Z,7.80
2022-10-08T22:22:18.061Z,7.80
2022-10-08T22:28:20.215Z,7.70
2022-10-08T22:34:22.181Z,7.60
2022-10-08T22:40:24.118Z,7.50
2022-10-08T22:46:34.790Z,7.50
2022-10-08T22:52:37.454Z,7.40
2022-10-08T22:58:39.549Z,7.40
2022-10-08T23:04:41.420Z,7.40
2022-10-08T23:11:12.119Z,7.30
2022-10-08T23:17:14.039Z,7.30
2022-10-08T23:23:15.931Z,7.40
2022-10-08T23:29:17.785Z,7.30
2022-10-08T23:35:20.579Z,7.10
2022-10-08T23:41:24.287Z,6.80
2022-10-08T23:47:29.561Z,6.70
2022-10-08T23:53:32.482Z,6.60
2022-10-08T23:59:34.405Z,6.40
